JES1519 SAME-SACO
Flight info
| Callsign | JES1519 |
|---|---|
| Flight time | 0h 48m |
| Altitude | 33000 |
| Route | SALBO2C SALBO A307 ALDEX ALDEX2X |
| Aircraft | A20N/M-SDE2E3FGHIRWXY/LB1 |
Departure
| Time | 2026-04-22 20:56 |
|---|---|
| Airport | Governor Francisco Gabrielli International Airport (SAME) |
Arrival
| Time | 2026-04-22 21:45 |
|---|---|
| Airport | Ingeniero Aeronáutico Ambrosio L.V. Taravella International Airport (SACO) |
| Time | Latitude | Longitude | Altitude | Speed | Heading |
|---|---|---|---|---|---|
| 2026-04-22 20:41 | -32.82722 | -68.79775 | 2305 ft | 0 kts | 271° |
| 2026-04-22 20:48 | -32.82723 | -68.79771 | 2310 ft | 0 kts | 271° |
| 2026-04-22 20:48 | -32.82723 | -68.79770 | 2310 ft | 2 kts | 271° |
| 2026-04-22 20:48 | -32.82723 | -68.79768 | 2310 ft | 0 kts | 271° |
| 2026-04-22 20:49 | -32.82723 | -68.79759 | 2308 ft | 3 kts | 271° |
| 2026-04-22 20:49 | -32.82724 | -68.79731 | 2308 ft | 0 kts | 261° |
| 2026-04-22 20:49 | -32.82716 | -68.79712 | 2316 ft | 3 kts | 217° |
| 2026-04-22 20:49 | -32.82705 | -68.79705 | 2314 ft | 0 kts | 185° |
| 2026-04-22 20:52 | -32.82720 | -68.79706 | 2316 ft | 7 kts | 185° |
| 2026-04-22 20:52 | -32.82821 | -68.79710 | 2311 ft | 23 kts | 180° |
| 2026-04-22 20:52 | -32.82929 | -68.79692 | 2315 ft | 1 kts | 111° |
| 2026-04-22 20:52 | -32.82938 | -68.79626 | 2311 ft | 17 kts | 110° |
| 2026-04-22 20:53 | -32.83057 | -68.79513 | 2308 ft | 25 kts | 169° |
| 2026-04-22 20:53 | -32.83227 | -68.79513 | 2311 ft | 22 kts | 179° |
| 2026-04-22 20:53 | -32.83393 | -68.79517 | 2315 ft | 25 kts | 181° |
| 2026-04-22 20:53 | -32.83573 | -68.79519 | 2312 ft | 27 kts | 180° |
| 2026-04-22 20:54 | -32.83764 | -68.79522 | 2315 ft | 28 kts | 181° |
| 2026-04-22 20:54 | -32.83938 | -68.79524 | 2315 ft | 26 kts | 180° |
| 2026-04-22 20:54 | -32.84086 | -68.79484 | 2319 ft | 21 kts | 159° |
| 2026-04-22 20:54 | -32.84200 | -68.79438 | 2317 ft | 0 kts | 161° |
| 2026-04-22 20:55 | -32.84200 | -68.79437 | 2317 ft | 0 kts | 161° |
| 2026-04-22 20:55 | -32.84235 | -68.79422 | 2318 ft | 13 kts | 157° |
| 2026-04-22 20:55 | -32.84257 | -68.79315 | 2319 ft | 19 kts | 24° |
| 2026-04-22 20:55 | -32.84025 | -68.79302 | 2320 ft | 61 kts | 1° |
| 2026-04-22 20:56 | -32.83375 | -68.79291 | 2318 ft | 125 kts | 0° |
| 2026-04-22 20:56 | -32.82337 | -68.79283 | 2386 ft | 165 kts | 3° |
| 2026-04-22 20:56 | -32.81203 | -68.79261 | 3113 ft | 163 kts | 3° |
| 2026-04-22 20:56 | -32.80067 | -68.79194 | 3790 ft | 163 kts | 6° |
| 2026-04-22 20:57 | -32.78913 | -68.79143 | 4317 ft | 173 kts | 2° |
| 2026-04-22 20:57 | -32.77637 | -68.79149 | 4696 ft | 194 kts | 0° |
| 2026-04-22 20:57 | -32.76244 | -68.78897 | 5094 ft | 214 kts | 25° |
| 2026-04-22 20:57 | -32.75066 | -68.77696 | 5484 ft | 238 kts | 59° |
| 2026-04-22 20:58 | -32.74468 | -68.75780 | 6008 ft | 259 kts | 80° |
| 2026-04-22 20:58 | -32.74211 | -68.73632 | 6844 ft | 266 kts | 85° |
| 2026-04-22 20:58 | -32.74016 | -68.71431 | 7785 ft | 269 kts | 84° |
| 2026-04-22 20:58 | -32.73571 | -68.69205 | 8487 ft | 284 kts | 73° |
| 2026-04-22 20:59 | -32.72960 | -68.66985 | 9410 ft | 288 kts | 72° |
| 2026-04-22 20:59 | -32.72311 | -68.64712 | 10336 ft | 293 kts | 71° |
| 2026-04-22 20:59 | -32.71631 | -68.62329 | 10746 ft | 317 kts | 71° |
| 2026-04-22 20:59 | -32.70900 | -68.59750 | 11047 ft | 342 kts | 71° |
| 2026-04-22 21:00 | -32.70131 | -68.57013 | 11599 ft | 354 kts | 71° |
| 2026-04-22 21:00 | -32.69345 | -68.54207 | 12347 ft | 362 kts | 71° |
| 2026-04-22 21:00 | -32.68541 | -68.51339 | 13088 ft | 370 kts | 71° |
| 2026-04-22 21:00 | -32.67719 | -68.48410 | 13803 ft | 377 kts | 71° |
| 2026-04-22 21:01 | -32.66883 | -68.45435 | 14483 ft | 383 kts | 70° |
| 2026-04-22 21:01 | -32.66032 | -68.42412 | 15186 ft | 388 kts | 70° |
| 2026-04-22 21:01 | -32.65181 | -68.39392 | 15877 ft | 393 kts | 70° |
| 2026-04-22 21:01 | -32.64308 | -68.36297 | 16554 ft | 398 kts | 70° |
| 2026-04-22 21:02 | -32.63418 | -68.33145 | 17232 ft | 404 kts | 70° |
| 2026-04-22 21:02 | -32.62519 | -68.29965 | 17897 ft | 409 kts | 70° |
| 2026-04-22 21:02 | -32.61608 | -68.26743 | 18516 ft | 415 kts | 70° |
| 2026-04-22 21:02 | -32.60683 | -68.23477 | 19127 ft | 419 kts | 70° |
| 2026-04-22 21:03 | -32.59749 | -68.20182 | 19713 ft | 423 kts | 69° |
| 2026-04-22 21:03 | -32.58806 | -68.16857 | 20294 ft | 428 kts | 69° |
| 2026-04-22 21:03 | -32.57849 | -68.13487 | 20888 ft | 432 kts | 69° |
| 2026-04-22 21:03 | -32.56884 | -68.10094 | 21458 ft | 437 kts | 69° |
| 2026-04-22 21:04 | -32.55921 | -68.06713 | 22028 ft | 441 kts | 69° |
| 2026-04-22 21:04 | -32.54936 | -68.03256 | 22592 ft | 445 kts | 68° |
| 2026-04-22 21:04 | -32.53938 | -67.99760 | 23158 ft | 449 kts | 68° |
| 2026-04-22 21:04 | -32.52930 | -67.96233 | 23698 ft | 454 kts | 68° |
| 2026-04-22 21:05 | -32.51910 | -67.92667 | 24178 ft | 457 kts | 68° |
| 2026-04-22 21:05 | -32.50886 | -67.89088 | 24643 ft | 461 kts | 68° |
| 2026-04-22 21:05 | -32.49851 | -67.85481 | 25097 ft | 464 kts | 67° |
| 2026-04-22 21:05 | -32.48835 | -67.81941 | 25535 ft | 468 kts | 67° |
| 2026-04-22 21:06 | -32.47780 | -67.78273 | 25979 ft | 471 kts | 67° |
| 2026-04-22 21:06 | -32.46732 | -67.74631 | 26416 ft | 474 kts | 67° |
| 2026-04-22 21:06 | -32.45662 | -67.70918 | 26822 ft | 478 kts | 67° |
| 2026-04-22 21:06 | -32.44583 | -67.67178 | 27240 ft | 481 kts | 66° |
| 2026-04-22 21:07 | -32.43496 | -67.63414 | 27644 ft | 485 kts | 66° |
| 2026-04-22 21:07 | -32.42401 | -67.59628 | 28040 ft | 488 kts | 66° |
| 2026-04-22 21:07 | -32.41298 | -67.55819 | 28425 ft | 491 kts | 66° |
| 2026-04-22 21:07 | -32.40187 | -67.51988 | 28795 ft | 494 kts | 66° |
| 2026-04-22 21:08 | -32.39068 | -67.48132 | 29159 ft | 497 kts | 66° |
| 2026-04-22 21:08 | -32.37942 | -67.44259 | 29514 ft | 499 kts | 66° |
| 2026-04-22 21:08 | -32.36807 | -67.40361 | 29862 ft | 502 kts | 65° |
| 2026-04-22 21:08 | -32.35665 | -67.36444 | 30221 ft | 504 kts | 65° |
| 2026-04-22 21:09 | -32.34517 | -67.32509 | 30519 ft | 507 kts | 65° |
| 2026-04-22 21:09 | -32.33360 | -67.28550 | 30833 ft | 509 kts | 65° |
| 2026-04-22 21:09 | -32.32200 | -67.24586 | 31123 ft | 512 kts | 65° |
| 2026-04-22 21:09 | -32.31045 | -67.20643 | 31465 ft | 513 kts | 65° |
| 2026-04-22 21:10 | -32.29875 | -67.16653 | 31851 ft | 514 kts | 64° |
| 2026-04-22 21:10 | -32.28702 | -67.12660 | 32212 ft | 514 kts | 64° |
| 2026-04-22 21:10 | -32.27529 | -67.08671 | 32558 ft | 515 kts | 64° |
| 2026-04-22 21:10 | -32.26354 | -67.04681 | 32914 ft | 515 kts | 64° |
| 2026-04-22 21:11 | -32.25172 | -67.00674 | 33082 ft | 515 kts | 64° |
| 2026-04-22 21:11 | -32.23993 | -66.96682 | 33106 ft | 514 kts | 63° |
| 2026-04-22 21:11 | -32.21628 | -66.88694 | 33110 ft | 515 kts | 63° |
| 2026-04-22 21:12 | -32.19256 | -66.80702 | 33112 ft | 515 kts | 63° |
| 2026-04-22 21:12 | -32.16881 | -66.72719 | 33111 ft | 516 kts | 63° |
| 2026-04-22 21:13 | -32.14498 | -66.64732 | 33110 ft | 516 kts | 63° |
| 2026-04-22 21:13 | -32.12107 | -66.56737 | 33109 ft | 516 kts | 63° |
| 2026-04-22 21:14 | -32.09654 | -66.48857 | 33109 ft | 514 kts | 60° |
| 2026-04-22 21:14 | -32.07042 | -66.40989 | 33113 ft | 515 kts | 60° |
| 2026-04-22 21:15 | -32.04441 | -66.33115 | 33111 ft | 515 kts | 60° |
| 2026-04-22 21:15 | -32.01827 | -66.25253 | 33115 ft | 515 kts | 60° |
| 2026-04-22 21:16 | -31.99204 | -66.17399 | 33110 ft | 515 kts | 60° |
| 2026-04-22 21:16 | -31.96592 | -66.09597 | 33105 ft | 515 kts | 60° |
| 2026-04-22 21:17 | -31.93960 | -66.01751 | 33096 ft | 515 kts | 60° |
| 2026-04-22 21:17 | -31.91319 | -65.93901 | 33111 ft | 515 kts | 60° |
| 2026-04-22 21:18 | -31.88675 | -65.86057 | 33114 ft | 516 kts | 59° |
| 2026-04-22 21:18 | -31.86023 | -65.78209 | 33111 ft | 516 kts | 59° |
| 2026-04-22 21:19 | -31.83376 | -65.70395 | 33116 ft | 516 kts | 59° |
| 2026-04-22 21:19 | -31.80709 | -65.62541 | 33116 ft | 517 kts | 59° |
| 2026-04-22 21:20 | -31.78039 | -65.54692 | 33120 ft | 517 kts | 59° |
| 2026-04-22 21:20 | -31.75357 | -65.46832 | 33123 ft | 518 kts | 59° |
| 2026-04-22 21:21 | -31.72713 | -65.39101 | 33129 ft | 518 kts | 59° |
| 2026-04-22 21:21 | -31.70035 | -65.31290 | 33136 ft | 519 kts | 59° |
| 2026-04-22 21:22 | -31.67323 | -65.23433 | 33143 ft | 517 kts | 56° |
| 2026-04-22 21:22 | -31.65620 | -65.19788 | 33143 ft | 500 kts | 44° |
| 2026-04-22 21:22 | -31.63471 | -65.16668 | 33147 ft | 483 kts | 33° |
| 2026-04-22 21:23 | -31.58691 | -65.11188 | 33150 ft | 480 kts | 32° |
| 2026-04-22 21:23 | -31.53934 | -65.05728 | 33158 ft | 481 kts | 32° |
| 2026-04-22 21:24 | -31.49155 | -65.00241 | 33110 ft | 480 kts | 32° |
| 2026-04-22 21:24 | -31.46769 | -64.97502 | 32662 ft | 479 kts | 32° |
| 2026-04-22 21:24 | -31.44378 | -64.94768 | 31882 ft | 482 kts | 33° |
| 2026-04-22 21:25 | -31.41961 | -64.92015 | 30910 ft | 488 kts | 34° |
| 2026-04-22 21:25 | -31.39507 | -64.89224 | 29752 ft | 495 kts | 34° |
| 2026-04-22 21:25 | -31.37168 | -64.86561 | 28796 ft | 498 kts | 35° |
| 2026-04-22 21:25 | -31.34609 | -64.83635 | 28098 ft | 492 kts | 36° |
| 2026-04-22 21:26 | -31.32174 | -64.80849 | 27429 ft | 486 kts | 36° |
| 2026-04-22 21:26 | -31.29796 | -64.78135 | 26763 ft | 481 kts | 36° |
| 2026-04-22 21:26 | -31.27414 | -64.75422 | 26115 ft | 475 kts | 37° |
| 2026-04-22 21:26 | -31.25056 | -64.72741 | 25461 ft | 470 kts | 37° |
| 2026-04-22 21:27 | -31.22718 | -64.70085 | 24804 ft | 467 kts | 37° |
| 2026-04-22 21:27 | -31.20511 | -64.67296 | 24232 ft | 467 kts | 46° |
| 2026-04-22 21:27 | -31.18709 | -64.64136 | 23592 ft | 469 kts | 57° |
| 2026-04-22 21:27 | -31.17358 | -64.60671 | 22906 ft | 468 kts | 65° |
| 2026-04-22 21:28 | -31.16185 | -64.57149 | 22246 ft | 464 kts | 65° |
| 2026-04-22 21:28 | -31.15016 | -64.53663 | 21612 ft | 458 kts | 65° |
| 2026-04-22 21:28 | -31.13852 | -64.50215 | 20958 ft | 454 kts | 65° |
| 2026-04-22 21:28 | -31.12699 | -64.46809 | 20352 ft | 449 kts | 65° |
| 2026-04-22 21:29 | -31.11554 | -64.43435 | 19756 ft | 444 kts | 65° |
| 2026-04-22 21:29 | -31.10956 | -64.41671 | 19449 ft | 442 kts | 65° |
| 2026-04-22 21:29 | -31.09827 | -64.38350 | 18857 ft | 438 kts | 65° |
| 2026-04-22 21:30 | -31.09059 | -64.35816 | 18426 ft | 435 kts | 72° |
| 2026-04-22 21:30 | -31.08475 | -64.32355 | 17739 ft | 434 kts | 82° |
| 2026-04-22 21:30 | -31.08394 | -64.28851 | 17110 ft | 430 kts | 91° |
| 2026-04-22 21:30 | -31.08537 | -64.25388 | 16482 ft | 426 kts | 97° |
| 2026-04-22 21:31 | -31.09264 | -64.22064 | 15874 ft | 420 kts | 113° |
| 2026-04-22 21:31 | -31.10703 | -64.19135 | 15278 ft | 413 kts | 130° |
| 2026-04-22 21:31 | -31.12735 | -64.16888 | 14994 ft | 394 kts | 149° |
| 2026-04-22 21:31 | -31.15107 | -64.15466 | 14798 ft | 376 kts | 159° |
| 2026-04-22 21:32 | -31.17285 | -64.13852 | 14455 ft | 380 kts | 140° |
| 2026-04-22 21:32 | -31.18954 | -64.11434 | 13834 ft | 387 kts | 120° |
| 2026-04-22 21:32 | -31.19913 | -64.08491 | 13073 ft | 391 kts | 106° |
| 2026-04-22 21:32 | -31.20324 | -64.05346 | 12202 ft | 394 kts | 89° |
| 2026-04-22 21:33 | -31.19897 | -64.02197 | 11359 ft | 395 kts | 73° |
| 2026-04-22 21:33 | -31.19128 | -63.99111 | 10520 ft | 396 kts | 73° |
| 2026-04-22 21:33 | -31.18363 | -63.96106 | 9681 ft | 396 kts | 73° |
| 2026-04-22 21:33 | -31.17450 | -63.93084 | 8777 ft | 394 kts | 63° |
| 2026-04-22 21:34 | -31.17000 | -63.92139 | 8489 ft | 393 kts | 57° |
| 2026-04-22 21:34 | -31.15879 | -63.90447 | 7909 ft | 392 kts | 46° |
| 2026-04-22 21:34 | -31.13737 | -63.88507 | 7063 ft | 390 kts | 28° |
| 2026-04-22 21:34 | -31.11221 | -63.87410 | 6354 ft | 381 kts | 11° |
| 2026-04-22 21:35 | -31.08674 | -63.87214 | 6066 ft | 353 kts | 355° |
| 2026-04-22 21:35 | -31.07113 | -63.87495 | 5979 ft | 334 kts | 345° |
| 2026-04-22 21:35 | -31.05036 | -63.88399 | 5960 ft | 304 kts | 331° |
| 2026-04-22 21:35 | -31.03357 | -63.89699 | 5964 ft | 278 kts | 319° |
| 2026-04-22 21:36 | -31.02022 | -63.91305 | 5969 ft | 279 kts | 307° |
| 2026-04-22 21:36 | -31.01007 | -63.93190 | 5967 ft | 266 kts | 294° |
| 2026-04-22 21:36 | -31.00390 | -63.95136 | 5970 ft | 252 kts | 283° |
| 2026-04-22 21:36 | -31.00107 | -63.97174 | 5968 ft | 255 kts | 272° |
| 2026-04-22 21:37 | -31.00255 | -63.99884 | 5970 ft | 252 kts | 257° |
| 2026-04-22 21:37 | -31.00547 | -64.01190 | 5971 ft | 250 kts | 250° |
| 2026-04-22 21:37 | -31.01225 | -64.03004 | 5971 ft | 239 kts | 239° |
| 2026-04-22 21:37 | -31.02156 | -64.04616 | 5913 ft | 241 kts | 229° |
| 2026-04-22 21:38 | -31.03324 | -64.06008 | 5778 ft | 239 kts | 220° |
| 2026-04-22 21:38 | -31.04577 | -64.07279 | 5611 ft | 239 kts | 220° |
| 2026-04-22 21:38 | -31.05801 | -64.08544 | 5517 ft | 230 kts | 220° |
| 2026-04-22 21:38 | -31.06977 | -64.09769 | 5265 ft | 225 kts | 220° |
| 2026-04-22 21:39 | -31.08140 | -64.10982 | 5039 ft | 220 kts | 220° |
| 2026-04-22 21:39 | -31.09300 | -64.12191 | 4930 ft | 225 kts | 220° |
| 2026-04-22 21:39 | -31.10462 | -64.13401 | 4729 ft | 223 kts | 220° |
| 2026-04-22 21:39 | -31.11626 | -64.14611 | 4399 ft | 224 kts | 220° |
| 2026-04-22 21:40 | -31.12782 | -64.15814 | 4116 ft | 221 kts | 220° |
| 2026-04-22 21:40 | -31.13891 | -64.16968 | 4020 ft | 211 kts | 220° |
| 2026-04-22 21:40 | -31.14968 | -64.18090 | 3934 ft | 199 kts | 221° |
| 2026-04-22 21:40 | -31.15940 | -64.19103 | 3909 ft | 180 kts | 220° |
| 2026-04-22 21:41 | -31.16815 | -64.20008 | 3894 ft | 154 kts | 218° |
| 2026-04-22 21:41 | -31.17694 | -64.20638 | 3887 ft | 142 kts | 200° |
| 2026-04-22 21:41 | -31.18632 | -64.20917 | 3823 ft | 140 kts | 187° |
| 2026-04-22 21:41 | -31.19594 | -64.21000 | 3646 ft | 138 kts | 180° |
| 2026-04-22 21:42 | -31.20395 | -64.21005 | 3502 ft | 137 kts | 178° |
| 2026-04-22 21:42 | -31.21245 | -64.20992 | 3341 ft | 137 kts | 178° |
| 2026-04-22 21:42 | -31.22203 | -64.20978 | 3166 ft | 138 kts | 178° |
| 2026-04-22 21:42 | -31.23161 | -64.20962 | 2975 ft | 138 kts | 178° |
| 2026-04-22 21:43 | -31.24088 | -64.20947 | 2798 ft | 137 kts | 176° |
| 2026-04-22 21:43 | -31.25036 | -64.20932 | 2587 ft | 135 kts | 177° |
| 2026-04-22 21:43 | -31.25975 | -64.20916 | 2396 ft | 135 kts | 177° |
| 2026-04-22 21:43 | -31.26912 | -64.20900 | 2206 ft | 133 kts | 177° |
| 2026-04-22 21:44 | -31.27825 | -64.20886 | 2013 ft | 131 kts | 177° |
| 2026-04-22 21:44 | -31.28731 | -64.20871 | 1832 ft | 129 kts | 178° |
| 2026-04-22 21:44 | -31.29632 | -64.20857 | 1619 ft | 129 kts | 179° |
| 2026-04-22 21:44 | -31.30422 | -64.20842 | 1575 ft | 63 kts | 179° |
| 2026-04-22 21:45 | -31.30772 | -64.20836 | 1574 ft | 47 kts | 180° |
| 2026-04-22 21:45 | -31.31074 | -64.20832 | 1574 ft | 49 kts | 180° |
| 2026-04-22 21:45 | -31.31469 | -64.20825 | 1575 ft | 61 kts | 180° |
| 2026-04-22 21:45 | -31.31756 | -64.20913 | 1575 ft | 20 kts | 211° |
| 2026-04-22 21:46 | -31.31780 | -64.20937 | 1574 ft | 1 kts | 237° |
| 2026-04-22 21:46 | -31.31792 | -64.21007 | 1574 ft | 11 kts | 282° |
| 2026-04-22 21:46 | -31.31718 | -64.21090 | 1575 ft | 21 kts | 338° |
| 2026-04-22 21:46 | -31.31576 | -64.21097 | 1575 ft | 15 kts | 345° |
| 2026-04-22 21:47 | -31.31549 | -64.21160 | 1574 ft | 7 kts | 271° |
| 2026-04-22 21:47 | -31.31549 | -64.21174 | 1574 ft | 0 kts | 271° |